sensor_id;sensor_type;location;lat;lon;timestamp;P1;durP1;ratioP1;P2;durP2;ratioP2
4089;SDS011;2059;48.538;12.146;2023-12-07T00:04:01;1.60;;;1.60;;
4089;SDS011;2059;48.538;12.146;2023-12-07T00:09:05;5.33;;;2.37;;
4089;SDS011;2059;48.538;12.146;2023-12-07T00:14:06;1.57;;;1.57;;
4089;SDS011;2059;48.538;12.146;2023-12-07T00:19:08;2.03;;;1.90;;
4089;SDS011;2059;48.538;12.146;2023-12-07T00:24:11;2.60;;;2.13;;
4089;SDS011;2059;48.538;12.146;2023-12-07T00:29:13;2.97;;;1.93;;
4089;SDS011;2059;48.538;12.146;2023-12-07T00:34:15;1.90;;;1.80;;
4089;SDS011;2059;48.538;12.146;2023-12-07T00:39:20;2.17;;;1.70;;
4089;SDS011;2059;48.538;12.146;2023-12-07T00:44:22;2.40;;;1.40;;
4089;SDS011;2059;48.538;12.146;2023-12-07T00:49:24;2.87;;;2.40;;
4089;SDS011;2059;48.538;12.146;2023-12-07T00:54:27;1.73;;;1.63;;
4089;SDS011;2059;48.538;12.146;2023-12-07T00:59:29;1.93;;;1.93;;
4089;SDS011;2059;48.538;12.146;2023-12-07T01:04:33;2.30;;;2.10;;
4089;SDS011;2059;48.538;12.146;2023-12-07T01:09:37;1.60;;;1.60;;
4089;SDS011;2059;48.538;12.146;2023-12-07T01:14:38;4.27;;;3.13;;
4089;SDS011;2059;48.538;12.146;2023-12-07T01:19:41;3.20;;;3.10;;
4089;SDS011;2059;48.538;12.146;2023-12-07T01:24:44;1.53;;;1.43;;
4089;SDS011;2059;48.538;12.146;2023-12-07T01:29:45;1.60;;;1.60;;
4089;SDS011;2059;48.538;12.146;2023-12-07T01:34:47;1.77;;;1.70;;
4089;SDS011;2059;48.538;12.146;2023-12-07T01:39:50;1.07;;;1.07;;
4089;SDS011;2059;48.538;12.146;2023-12-07T01:44:52;1.20;;;1.17;;
4089;SDS011;2059;48.538;12.146;2023-12-07T01:49:54;1.70;;;1.60;;
4089;SDS011;2059;48.538;12.146;2023-12-07T01:54:58;3.47;;;2.57;;
4089;SDS011;2059;48.538;12.146;2023-12-07T02:00:00;1.70;;;1.60;;
4089;SDS011;2059;48.538;12.146;2023-12-07T02:05:02;1.73;;;1.63;;
4089;SDS011;2059;48.538;12.146;2023-12-07T02:10:07;1.27;;;1.20;;
4089;SDS011;2059;48.538;12.146;2023-12-07T02:15:09;1.97;;;1.97;;
4089;SDS011;2059;48.538;12.146;2023-12-07T02:20:13;2.43;;;2.23;;
4089;SDS011;2059;48.538;12.146;2023-12-07T02:25:24;3.33;;;3.03;;
4089;SDS011;2059;48.538;12.146;2023-12-07T02:30:32;3.33;;;3.07;;
4089;SDS011;2059;48.538;12.146;2023-12-07T02:35:35;3.47;;;2.73;;
4089;SDS011;2059;48.538;12.146;2023-12-07T02:40:37;2.77;;;2.57;;
4089;SDS011;2059;48.538;12.146;2023-12-07T02:45:42;1.43;;;1.43;;
4089;SDS011;2059;48.538;12.146;2023-12-07T02:50:44;3.90;;;2.17;;
4089;SDS011;2059;48.538;12.146;2023-12-07T02:55:46;4.30;;;2.40;;
4089;SDS011;2059;48.538;12.146;2023-12-07T03:00:49;1.40;;;1.40;;
4089;SDS011;2059;48.538;12.146;2023-12-07T03:05:50;5.30;;;2.10;;
4089;SDS011;2059;48.538;12.146;2023-12-07T03:10:52;2.07;;;1.97;;
4089;SDS011;2059;48.538;12.146;2023-12-07T03:15:55;1.70;;;1.60;;
4089;SDS011;2059;48.538;12.146;2023-12-07T03:20:57;1.50;;;1.40;;
4089;SDS011;2059;48.538;12.146;2023-12-07T03:25:59;4.20;;;2.10;;
4089;SDS011;2059;48.538;12.146;2023-12-07T03:31:02;1.53;;;1.50;;
4089;SDS011;2059;48.538;12.146;2023-12-07T03:36:04;1.47;;;1.47;;
4089;SDS011;2059;48.538;12.146;2023-12-07T03:41:06;2.07;;;1.80;;
4089;SDS011;2059;48.538;12.146;2023-12-07T03:46:09;1.73;;;1.63;;
4089;SDS011;2059;48.538;12.146;2023-12-07T03:51:12;2.07;;;1.80;;
4089;SDS011;2059;48.538;12.146;2023-12-07T03:56:22;2.53;;;2.40;;
4089;SDS011;2059;48.538;12.146;2023-12-07T04:01:26;1.97;;;1.90;;
4089;SDS011;2059;48.538;12.146;2023-12-07T04:06:29;2.90;;;2.47;;
4089;SDS011;2059;48.538;12.146;2023-12-07T04:11:31;1.60;;;1.50;;
4089;SDS011;2059;48.538;12.146;2023-12-07T04:16:34;2.23;;;2.13;;
4089;SDS011;2059;48.538;12.146;2023-12-07T04:21:35;2.40;;;2.30;;
4089;SDS011;2059;48.538;12.146;2023-12-07T04:26:37;4.37;;;1.90;;
4089;SDS011;2059;48.538;12.146;2023-12-07T04:31:41;2.60;;;2.50;;
4089;SDS011;2059;48.538;12.146;2023-12-07T04:36:43;4.07;;;2.07;;
4089;SDS011;2059;48.538;12.146;2023-12-07T04:41:45;2.20;;;2.10;;
4089;SDS011;2059;48.538;12.146;2023-12-07T04:46:48;2.33;;;2.13;;
4089;SDS011;2059;48.538;12.146;2023-12-07T04:51:50;2.10;;;2.00;;
4089;SDS011;2059;48.538;12.146;2023-12-07T04:56:51;1.80;;;1.80;;
4089;SDS011;2059;48.538;12.146;2023-12-07T05:01:55;3.40;;;2.43;;
4089;SDS011;2059;48.538;12.146;2023-12-07T05:06:57;3.10;;;2.83;;
4089;SDS011;2059;48.538;12.146;2023-12-07T05:11:58;2.60;;;2.40;;
4089;SDS011;2059;48.538;12.146;2023-12-07T05:17:02;2.50;;;2.40;;
4089;SDS011;2059;48.538;12.146;2023-12-07T05:22:05;2.37;;;1.70;;
4089;SDS011;2059;48.538;12.146;2023-12-07T05:27:06;2.80;;;2.60;;
4089;SDS011;2059;48.538;12.146;2023-12-07T05:32:10;1.70;;;1.60;;
4089;SDS011;2059;48.538;12.146;2023-12-07T05:37:11;1.93;;;1.83;;
4089;SDS011;2059;48.538;12.146;2023-12-07T05:42:14;2.33;;;1.37;;
4089;SDS011;2059;48.538;12.146;2023-12-07T05:47:17;1.30;;;1.30;;
4089;SDS011;2059;48.538;12.146;2023-12-07T05:52:19;1.70;;;1.70;;
4089;SDS011;2059;48.538;12.146;2023-12-07T05:57:20;3.83;;;2.60;;
4089;SDS011;2059;48.538;12.146;2023-12-07T06:02:23;1.63;;;1.60;;
4089;SDS011;2059;48.538;12.146;2023-12-07T06:07:26;3.10;;;2.73;;
4089;SDS011;2059;48.538;12.146;2023-12-07T06:12:28;1.33;;;1.33;;
4089;SDS011;2059;48.538;12.146;2023-12-07T06:17:31;2.77;;;2.60;;
4089;SDS011;2059;48.538;12.146;2023-12-07T06:22:33;3.37;;;2.07;;
4089;SDS011;2059;48.538;12.146;2023-12-07T06:27:35;2.13;;;2.13;;
4089;SDS011;2059;48.538;12.146;2023-12-07T06:32:38;2.67;;;2.47;;
4089;SDS011;2059;48.538;12.146;2023-12-07T06:37:40;2.00;;;1.90;;
4089;SDS011;2059;48.538;12.146;2023-12-07T06:42:42;2.40;;;2.30;;
4089;SDS011;2059;48.538;12.146;2023-12-07T06:47:45;2.70;;;2.07;;
4089;SDS011;2059;48.538;12.146;2023-12-07T06:52:47;3.03;;;2.73;;
4089;SDS011;2059;48.538;12.146;2023-12-07T06:57:48;2.20;;;2.10;;
4089;SDS011;2059;48.538;12.146;2023-12-07T07:02:51;4.47;;;2.37;;
4089;SDS011;2059;48.538;12.146;2023-12-07T07:07:53;1.93;;;1.93;;
4089;SDS011;2059;48.538;12.146;2023-12-07T07:12:59;2.03;;;1.80;;
4089;SDS011;2059;48.538;12.146;2023-12-07T07:18:02;2.63;;;2.43;;
4089;SDS011;2059;48.538;12.146;2023-12-07T07:23:04;1.67;;;1.57;;
4089;SDS011;2059;48.538;12.146;2023-12-07T07:28:08;5.83;;;3.13;;
4089;SDS011;2059;48.538;12.146;2023-12-07T07:33:11;1.70;;;1.63;;
4089;SDS011;2059;48.538;12.146;2023-12-07T07:38:13;4.27;;;2.97;;
4089;SDS011;2059;48.538;12.146;2023-12-07T07:43:14;2.27;;;2.17;;
4089;SDS011;2059;48.538;12.146;2023-12-07T07:48:17;4.07;;;3.67;;
4089;SDS011;2059;48.538;12.146;2023-12-07T07:53:19;2.57;;;2.43;;
4089;SDS011;2059;48.538;12.146;2023-12-07T07:58:21;2.53;;;2.33;;
4089;SDS011;2059;48.538;12.146;2023-12-07T08:03:24;3.67;;;2.20;;
4089;SDS011;2059;48.538;12.146;2023-12-07T08:08:26;1.97;;;1.87;;
4089;SDS011;2059;48.538;12.146;2023-12-07T08:13:27;1.73;;;1.73;;
4089;SDS011;2059;48.538;12.146;2023-12-07T08:18:31;2.73;;;2.53;;
4089;SDS011;2059;48.538;12.146;2023-12-07T08:23:33;2.70;;;2.43;;
4089;SDS011;2059;48.538;12.146;2023-12-07T08:28:34;4.13;;;3.00;;
4089;SDS011;2059;48.538;12.146;2023-12-07T08:33:38;2.73;;;2.53;;
4089;SDS011;2059;48.538;12.146;2023-12-07T08:38:40;2.33;;;2.23;;
4089;SDS011;2059;48.538;12.146;2023-12-07T08:43:42;2.80;;;2.70;;
4089;SDS011;2059;48.538;12.146;2023-12-07T08:48:45;4.10;;;3.80;;
4089;SDS011;2059;48.538;12.146;2023-12-07T08:53:47;3.47;;;3.27;;
4089;SDS011;2059;48.538;12.146;2023-12-07T08:58:49;2.30;;;2.20;;
4089;SDS011;2059;48.538;12.146;2023-12-07T09:03:53;3.10;;;2.90;;
4089;SDS011;2059;48.538;12.146;2023-12-07T09:08:55;3.80;;;3.70;;
4089;SDS011;2059;48.538;12.146;2023-12-07T09:13:56;4.60;;;3.97;;
4089;SDS011;2059;48.538;12.146;2023-12-07T09:18:59;6.33;;;2.93;;
4089;SDS011;2059;48.538;12.146;2023-12-07T09:24:02;2.50;;;2.40;;
4089;SDS011;2059;48.538;12.146;2023-12-07T09:29:05;3.00;;;2.80;;
4089;SDS011;2059;48.538;12.146;2023-12-07T09:34:10;2.93;;;2.67;;
4089;SDS011;2059;48.538;12.146;2023-12-07T09:39:17;3.53;;;3.30;;
4089;SDS011;2059;48.538;12.146;2023-12-07T09:44:19;3.30;;;3.10;;
4089;SDS011;2059;48.538;12.146;2023-12-07T09:49:22;5.23;;;4.73;;
4089;SDS011;2059;48.538;12.146;2023-12-07T09:54:24;4.47;;;4.00;;
4089;SDS011;2059;48.538;12.146;2023-12-07T09:59:27;3.50;;;2.70;;
4089;SDS011;2059;48.538;12.146;2023-12-07T10:04:30;4.50;;;3.40;;
4089;SDS011;2059;48.538;12.146;2023-12-07T10:09:32;3.43;;;3.10;;
4089;SDS011;2059;48.538;12.146;2023-12-07T10:14:34;3.67;;;3.13;;
4089;SDS011;2059;48.538;12.146;2023-12-07T10:19:37;3.53;;;3.23;;
4089;SDS011;2059;48.538;12.146;2023-12-07T10:24:39;4.43;;;3.20;;
4089;SDS011;2059;48.538;12.146;2023-12-07T10:29:40;2.97;;;2.73;;
4089;SDS011;2059;48.538;12.146;2023-12-07T10:34:46;4.43;;;3.80;;
4089;SDS011;2059;48.538;12.146;2023-12-07T10:39:48;4.63;;;4.30;;
4089;SDS011;2059;48.538;12.146;2023-12-07T10:44:50;7.20;;;6.60;;
4089;SDS011;2059;48.538;12.146;2023-12-07T10:49:55;9.13;;;3.83;;
4089;SDS011;2059;48.538;12.146;2023-12-07T10:55:02;3.77;;;3.47;;
4089;SDS011;2059;48.538;12.146;2023-12-07T11:00:08;3.20;;;3.00;;
4089;SDS011;2059;48.538;12.146;2023-12-07T11:05:12;3.90;;;3.70;;
4089;SDS011;2059;48.538;12.146;2023-12-07T11:10:15;4.93;;;4.57;;
4089;SDS011;2059;48.538;12.146;2023-12-07T11:15:23;4.97;;;3.60;;
4089;SDS011;2059;48.538;12.146;2023-12-07T11:20:34;6.90;;;6.40;;
4089;SDS011;2059;48.538;12.146;2023-12-07T11:25:42;4.73;;;4.30;;
4089;SDS011;2059;48.538;12.146;2023-12-07T11:30:45;4.43;;;4.23;;
4089;SDS011;2059;48.538;12.146;2023-12-07T11:36:04;4.93;;;4.40;;
4089;SDS011;2059;48.538;12.146;2023-12-07T11:41:08;3.60;;;3.30;;
4089;SDS011;2059;48.538;12.146;2023-12-07T11:46:11;4.37;;;3.97;;
4089;SDS011;2059;48.538;12.146;2023-12-07T11:51:16;3.53;;;3.33;;
4089;SDS011;2059;48.538;12.146;2023-12-07T11:56:18;5.17;;;3.87;;
4089;SDS011;2059;48.538;12.146;2023-12-07T12:01:21;4.20;;;3.80;;
4089;SDS011;2059;48.538;12.146;2023-12-07T12:06:28;6.00;;;5.40;;
4089;SDS011;2059;48.538;12.146;2023-12-07T12:11:30;4.87;;;4.47;;
4089;SDS011;2059;48.538;12.146;2023-12-07T12:16:32;5.47;;;4.90;;
4089;SDS011;2059;48.538;12.146;2023-12-07T12:21:35;6.37;;;5.80;;
4089;SDS011;2059;48.538;12.146;2023-12-07T12:26:39;5.60;;;4.50;;
4089;SDS011;2059;48.538;12.146;2023-12-07T12:31:42;4.00;;;3.70;;
4089;SDS011;2059;48.538;12.146;2023-12-07T12:36:45;4.47;;;4.13;;
4089;SDS011;2059;48.538;12.146;2023-12-07T12:41:47;4.90;;;4.50;;
4089;SDS011;2059;48.538;12.146;2023-12-07T12:46:55;5.10;;;4.23;;
4089;SDS011;2059;48.538;12.146;2023-12-07T12:51:58;4.30;;;4.00;;
4089;SDS011;2059;48.538;12.146;2023-12-07T12:56:59;4.70;;;3.93;;
4089;SDS011;2059;48.538;12.146;2023-12-07T13:02:01;4.10;;;3.50;;
4089;SDS011;2059;48.538;12.146;2023-12-07T13:07:05;5.10;;;3.93;;
4089;SDS011;2059;48.538;12.146;2023-12-07T13:12:07;3.90;;;3.47;;
4089;SDS011;2059;48.538;12.146;2023-12-07T13:17:09;4.87;;;4.13;;
4089;SDS011;2059;48.538;12.146;2023-12-07T13:22:12;4.40;;;3.90;;
4089;SDS011;2059;48.538;12.146;2023-12-07T13:27:14;5.80;;;4.37;;
4089;SDS011;2059;48.538;12.146;2023-12-07T13:32:16;8.33;;;4.50;;
4089;SDS011;2059;48.538;12.146;2023-12-07T13:37:19;6.50;;;4.30;;
4089;SDS011;2059;48.538;12.146;2023-12-07T13:42:21;6.60;;;6.20;;
4089;SDS011;2059;48.538;12.146;2023-12-07T13:47:26;6.83;;;5.03;;
4089;SDS011;2059;48.538;12.146;2023-12-07T13:52:32;4.90;;;4.40;;
4089;SDS011;2059;48.538;12.146;2023-12-07T13:57:34;7.10;;;4.20;;
4089;SDS011;2059;48.538;12.146;2023-12-07T14:02:36;4.63;;;4.20;;
4089;SDS011;2059;48.538;12.146;2023-12-07T14:07:39;4.87;;;4.47;;
4089;SDS011;2059;48.538;12.146;2023-12-07T14:12:41;7.70;;;4.83;;
4089;SDS011;2059;48.538;12.146;2023-12-07T14:17:42;9.20;;;6.10;;
4089;SDS011;2059;48.538;12.146;2023-12-07T14:22:46;4.77;;;4.27;;
4089;SDS011;2059;48.538;12.146;2023-12-07T14:27:49;6.17;;;5.67;;
4089;SDS011;2059;48.538;12.146;2023-12-07T14:32:50;3.57;;;3.37;;
4089;SDS011;2059;48.538;12.146;2023-12-07T14:37:53;5.07;;;4.73;;
4089;SDS011;2059;48.538;12.146;2023-12-07T14:42:55;3.00;;;2.90;;
4089;SDS011;2059;48.538;12.146;2023-12-07T14:47:57;4.33;;;4.00;;
4089;SDS011;2059;48.538;12.146;2023-12-07T14:53:00;4.10;;;3.80;;
4089;SDS011;2059;48.538;12.146;2023-12-07T14:58:02;4.60;;;4.30;;
4089;SDS011;2059;48.538;12.146;2023-12-07T15:03:04;3.90;;;3.70;;
4089;SDS011;2059;48.538;12.146;2023-12-07T15:08:07;5.43;;;4.93;;
4089;SDS011;2059;48.538;12.146;2023-12-07T15:13:09;3.57;;;3.07;;
4089;SDS011;2059;48.538;12.146;2023-12-07T15:18:10;3.00;;;2.87;;
4089;SDS011;2059;48.538;12.146;2023-12-07T15:23:14;4.03;;;3.80;;
4089;SDS011;2059;48.538;12.146;2023-12-07T15:28:16;2.40;;;2.30;;
4089;SDS011;2059;48.538;12.146;2023-12-07T15:33:18;3.20;;;2.90;;
4089;SDS011;2059;48.538;12.146;2023-12-07T15:38:21;3.27;;;2.97;;
4089;SDS011;2059;48.538;12.146;2023-12-07T15:43:23;2.20;;;2.10;;
4089;SDS011;2059;48.538;12.146;2023-12-07T15:48:24;3.67;;;2.93;;
4089;SDS011;2059;48.538;12.146;2023-12-07T15:53:28;2.60;;;2.50;;
4089;SDS011;2059;48.538;12.146;2023-12-07T15:58:30;3.03;;;2.83;;
4089;SDS011;2059;48.538;12.146;2023-12-07T16:03:31;3.93;;;3.63;;
4089;SDS011;2059;48.538;12.146;2023-12-07T16:08:37;2.03;;;1.93;;
4089;SDS011;2059;48.538;12.146;2023-12-07T16:13:39;4.93;;;2.50;;
4089;SDS011;2059;48.538;12.146;2023-12-07T16:18:41;2.77;;;2.60;;
4089;SDS011;2059;48.538;12.146;2023-12-07T16:23:44;3.50;;;2.80;;
4089;SDS011;2059;48.538;12.146;2023-12-07T16:28:45;3.40;;;2.97;;
4089;SDS011;2059;48.538;12.146;2023-12-07T16:33:47;3.30;;;2.53;;
4089;SDS011;2059;48.538;12.146;2023-12-07T16:38:50;5.00;;;4.50;;
4089;SDS011;2059;48.538;12.146;2023-12-07T16:43:52;5.90;;;5.23;;
4089;SDS011;2059;48.538;12.146;2023-12-07T16:48:54;3.10;;;2.87;;
4089;SDS011;2059;48.538;12.146;2023-12-07T16:53:57;5.23;;;4.37;;
4089;SDS011;2059;48.538;12.146;2023-12-07T16:59:00;5.10;;;4.60;;
4089;SDS011;2059;48.538;12.146;2023-12-07T17:04:01;4.23;;;3.93;;
4089;SDS011;2059;48.538;12.146;2023-12-07T17:09:05;5.90;;;5.20;;
4089;SDS011;2059;48.538;12.146;2023-12-07T17:14:07;3.40;;;3.20;;
4089;SDS011;2059;48.538;12.146;2023-12-07T17:19:09;2.87;;;2.67;;
4089;SDS011;2059;48.538;12.146;2023-12-07T17:24:12;3.77;;;3.43;;
4089;SDS011;2059;48.538;12.146;2023-12-07T17:29:14;5.93;;;2.63;;
4089;SDS011;2059;48.538;12.146;2023-12-07T17:34:16;5.40;;;3.63;;
4089;SDS011;2059;48.538;12.146;2023-12-07T17:39:19;8.73;;;2.70;;
4089;SDS011;2059;48.538;12.146;2023-12-07T17:44:21;3.50;;;3.20;;
4089;SDS011;2059;48.538;12.146;2023-12-07T17:49:22;4.60;;;4.20;;
4089;SDS011;2059;48.538;12.146;2023-12-07T17:54:26;4.93;;;3.33;;
4089;SDS011;2059;48.538;12.146;2023-12-07T17:59:27;2.60;;;2.50;;
4089;SDS011;2059;48.538;12.146;2023-12-07T18:04:32;4.20;;;3.80;;
4089;SDS011;2059;48.538;12.146;2023-12-07T18:09:35;3.73;;;3.43;;
4089;SDS011;2059;48.538;12.146;2023-12-07T18:14:37;3.10;;;2.87;;
4089;SDS011;2059;48.538;12.146;2023-12-07T18:19:38;3.23;;;2.90;;
4089;SDS011;2059;48.538;12.146;2023-12-07T18:24:41;4.67;;;4.27;;
4089;SDS011;2059;48.538;12.146;2023-12-07T18:29:43;3.30;;;3.07;;
4089;SDS011;2059;48.538;12.146;2023-12-07T18:34:45;4.80;;;3.40;;
4089;SDS011;2059;48.538;12.146;2023-12-07T18:39:48;2.60;;;2.40;;
4089;SDS011;2059;48.538;12.146;2023-12-07T18:44:50;2.40;;;2.30;;
4089;SDS011;2059;48.538;12.146;2023-12-07T18:49:52;3.30;;;3.10;;
4089;SDS011;2059;48.538;12.146;2023-12-07T18:54:55;3.37;;;2.47;;
4089;SDS011;2059;48.538;12.146;2023-12-07T18:59:57;4.30;;;3.97;;
4089;SDS011;2059;48.538;12.146;2023-12-07T19:04:58;2.13;;;2.03;;
4089;SDS011;2059;48.538;12.146;2023-12-07T19:10:02;3.83;;;3.63;;
4089;SDS011;2059;48.538;12.146;2023-12-07T19:15:04;2.80;;;2.60;;
4089;SDS011;2059;48.538;12.146;2023-12-07T19:20:07;3.03;;;2.83;;
4089;SDS011;2059;48.538;12.146;2023-12-07T19:25:11;1.63;;;1.63;;
4089;SDS011;2059;48.538;12.146;2023-12-07T19:30:13;2.47;;;2.13;;
4089;SDS011;2059;48.538;12.146;2023-12-07T19:35:14;8.90;;;4.07;;
4089;SDS011;2059;48.538;12.146;2023-12-07T19:40:18;3.20;;;2.43;;
4089;SDS011;2059;48.538;12.146;2023-12-07T19:45:19;5.50;;;4.13;;
4089;SDS011;2059;48.538;12.146;2023-12-07T19:50:23;6.23;;;2.27;;
4089;SDS011;2059;48.538;12.146;2023-12-07T19:55:28;7.00;;;2.40;;
4089;SDS011;2059;48.538;12.146;2023-12-07T20:00:30;2.37;;;2.37;;
4089;SDS011;2059;48.538;12.146;2023-12-07T20:05:32;2.77;;;2.57;;
4089;SDS011;2059;48.538;12.146;2023-12-07T20:10:36;2.90;;;2.20;;
4089;SDS011;2059;48.538;12.146;2023-12-07T20:15:39;3.20;;;3.00;;
4089;SDS011;2059;48.538;12.146;2023-12-07T20:20:42;1.73;;;1.70;;
4089;SDS011;2059;48.538;12.146;2023-12-07T20:25:45;1.80;;;1.80;;
4089;SDS011;2059;48.538;12.146;2023-12-07T20:30:47;2.53;;;2.43;;
4089;SDS011;2059;48.538;12.146;2023-12-07T20:35:50;2.00;;;1.90;;
4089;SDS011;2059;48.538;12.146;2023-12-07T20:40:53;1.93;;;1.83;;
4089;SDS011;2059;48.538;12.146;2023-12-07T20:45:55;3.30;;;2.77;;
4089;SDS011;2059;48.538;12.146;2023-12-07T20:50:57;2.30;;;2.20;;
4089;SDS011;2059;48.538;12.146;2023-12-07T20:56:01;8.20;;;2.50;;
4089;SDS011;2059;48.538;12.146;2023-12-07T21:01:04;2.40;;;2.30;;
4089;SDS011;2059;48.538;12.146;2023-12-07T21:06:06;2.80;;;2.60;;
4089;SDS011;2059;48.538;12.146;2023-12-07T21:11:10;2.13;;;2.03;;
4089;SDS011;2059;48.538;12.146;2023-12-07T21:16:12;2.97;;;2.80;;
4089;SDS011;2059;48.538;12.146;2023-12-07T21:21:14;4.87;;;4.00;;
4089;SDS011;2059;48.538;12.146;2023-12-07T21:26:17;2.63;;;2.53;;
4089;SDS011;2059;48.538;12.146;2023-12-07T21:31:19;1.87;;;1.87;;
4089;SDS011;2059;48.538;12.146;2023-12-07T21:36:22;2.70;;;2.70;;
4089;SDS011;2059;48.538;12.146;2023-12-07T21:41:25;10.70;;;2.17;;
4089;SDS011;2059;48.538;12.146;2023-12-07T21:52:19;2.20;;;2.10;;
4089;SDS011;2059;48.538;12.146;2023-12-07T21:57:23;3.30;;;3.00;;
4089;SDS011;2059;48.538;12.146;2023-12-07T22:02:24;2.50;;;2.30;;
4089;SDS011;2059;48.538;12.146;2023-12-07T22:07:26;3.90;;;2.23;;
4089;SDS011;2059;48.538;12.146;2023-12-07T22:12:29;2.67;;;2.57;;
4089;SDS011;2059;48.538;12.146;2023-12-07T22:17:31;1.50;;;1.47;;
4089;SDS011;2059;48.538;12.146;2023-12-07T22:22:36;3.03;;;2.93;;
4089;SDS011;2059;48.538;12.146;2023-12-07T22:27:39;2.60;;;2.40;;
4089;SDS011;2059;48.538;12.146;2023-12-07T22:32:41;3.23;;;2.93;;
4089;SDS011;2059;48.538;12.146;2023-12-07T22:37:43;2.80;;;2.60;;
4089;SDS011;2059;48.538;12.146;2023-12-07T22:42:46;2.63;;;2.53;;
4089;SDS011;2059;48.538;12.146;2023-12-07T22:47:47;2.87;;;2.73;;
4089;SDS011;2059;48.538;12.146;2023-12-07T22:52:49;3.73;;;3.43;;
4089;SDS011;2059;48.538;12.146;2023-12-07T22:57:52;2.10;;;2.00;;
4089;SDS011;2059;48.538;12.146;2023-12-07T23:02:54;6.10;;;2.20;;
4089;SDS011;2059;48.538;12.146;2023-12-07T23:07:56;1.63;;;1.53;;
4089;SDS011;2059;48.538;12.146;2023-12-07T23:13:00;2.03;;;1.93;;
4089;SDS011;2059;48.538;12.146;2023-12-07T23:18:02;2.03;;;1.93;;
4089;SDS011;2059;48.538;12.146;2023-12-07T23:23:04;1.73;;;1.73;;
4089;SDS011;2059;48.538;12.146;2023-12-07T23:28:07;1.80;;;1.70;;
4089;SDS011;2059;48.538;12.146;2023-12-07T23:33:09;3.00;;;2.20;;
4089;SDS011;2059;48.538;12.146;2023-12-07T23:38:11;1.87;;;1.80;;
4089;SDS011;2059;48.538;12.146;2023-12-07T23:43:14;2.90;;;2.70;;
4089;SDS011;2059;48.538;12.146;2023-12-07T23:48:16;2.53;;;2.33;;
4089;SDS011;2059;48.538;12.146;2023-12-07T23:53:18;2.60;;;2.50;;
4089;SDS011;2059;48.538;12.146;2023-12-07T23:58:21;1.67;;;1.57;;
